createdAt,value
2019-05-19T00:00:27.178Z,91.50
2019-05-19T00:01:27.173Z,91.64
2019-05-19T00:02:27.149Z,91.44
2019-05-19T00:03:27.141Z,91.19
2019-05-19T00:04:27.147Z,91.23
2019-05-19T00:05:27.115Z,91.23
2019-05-19T00:06:27.109Z,91.23
2019-05-19T00:07:27.095Z,91.23
2019-05-19T00:08:27.101Z,91.13
2019-05-19T00:09:27.086Z,91.85
2019-05-19T00:10:27.073Z,91.64
2019-05-19T00:11:27.075Z,91.85
2019-05-19T00:12:27.040Z,91.64
2019-05-19T00:13:27.025Z,91.74
2019-05-19T00:14:27.013Z,92.05
2019-05-19T00:15:27.029Z,92.40
2019-05-19T00:16:26.998Z,92.15
2019-05-19T00:17:26.981Z,92.19
2019-05-19T00:18:26.969Z,92.40
2019-05-19T00:19:27.262Z,92.36
2019-05-19T00:20:26.950Z,92.40
2019-05-19T00:21:26.973Z,92.19
2019-05-19T00:22:26.928Z,92.15
2019-05-19T00:23:26.917Z,92.50
2019-05-19T00:24:26.912Z,92.81
2019-05-19T00:25:26.903Z,93.32
2019-05-19T00:26:26.882Z,92.91
2019-05-19T00:27:26.887Z,93.12
2019-05-19T00:28:26.860Z,92.66
2019-05-19T00:29:26.849Z,92.71
2019-05-19T00:30:26.839Z,92.81
2019-05-19T00:31:26.833Z,93.01
2019-05-19T00:32:26.816Z,92.81
2019-05-19T00:33:26.814Z,92.81
2019-05-19T00:34:26.794Z,92.71
2019-05-19T00:35:26.838Z,93.22
2019-05-19T00:36:26.814Z,93.32
2019-05-19T00:37:26.753Z,93.12
2019-05-19T00:38:26.754Z,92.91
2019-05-19T00:39:26.760Z,93.01
2019-05-19T00:40:26.772Z,93.01
2019-05-19T00:41:26.723Z,93.22
2019-05-19T00:42:26.713Z,92.91
2019-05-19T00:43:26.691Z,92.91
2019-05-19T00:44:26.679Z,93.52
2019-05-19T00:45:26.674Z,93.12
2019-05-19T00:46:26.666Z,93.67
2019-05-19T00:47:26.657Z,93.37
2019-05-19T00:48:26.636Z,93.32
2019-05-19T00:49:38.889Z,93.32
2019-05-19T00:50:27.604Z,93.22
2019-05-19T00:51:26.598Z,93.37
2019-05-19T00:52:26.629Z,93.57
2019-05-19T00:53:26.584Z,93.37
2019-05-19T00:54:26.565Z,93.37
2019-05-19T00:55:26.565Z,93.47
2019-05-19T00:56:26.538Z,93.88
2019-05-19T00:57:26.533Z,93.77
2019-05-19T00:58:26.531Z,93.98
2019-05-19T00:59:26.515Z,94.29
2019-05-19T01:00:26.499Z,94.04
2019-05-19T01:01:26.495Z,94.29
2019-05-19T01:02:26.475Z,94.24
2019-05-19T01:03:26.479Z,93.93
2019-05-19T01:04:26.451Z,93.84
2019-05-19T01:05:26.450Z,94.08
2019-05-19T01:06:26.436Z,94.18
2019-05-19T01:07:26.434Z,94.39
2019-05-19T01:08:26.450Z,94.24
2019-05-19T01:09:26.401Z,94.14
2019-05-19T01:10:26.392Z,94.49
2019-05-19T01:11:26.398Z,93.88
2019-05-19T01:12:26.375Z,94.34
2019-05-19T01:13:26.376Z,94.29
2019-05-19T01:14:26.401Z,94.34
2019-05-19T01:15:26.331Z,94.49
2019-05-19T01:16:26.327Z,94.39
2019-05-19T01:17:26.327Z,94.18
2019-05-19T01:18:26.311Z,94.18
2019-05-19T01:19:26.309Z,94.08
2019-05-19T01:20:26.284Z,94.29
2019-05-19T01:21:26.270Z,94.29
2019-05-19T01:22:26.277Z,94.18
2019-05-19T01:23:26.249Z,93.98
2019-05-19T01:24:26.268Z,94.12
2019-05-19T01:25:26.220Z,94.23
2019-05-19T01:26:26.212Z,94.33
2019-05-19T01:27:26.204Z,94.23
2019-05-19T01:28:26.194Z,94.43
2019-05-19T01:29:26.180Z,94.23
2019-05-19T01:30:26.182Z,94.23
2019-05-19T01:31:26.184Z,94.54
2019-05-19T01:32:26.142Z,94.74
2019-05-19T01:33:26.147Z,94.64
2019-05-19T01:34:26.120Z,94.70
2019-05-19T01:35:26.153Z,94.64
2019-05-19T01:36:26.113Z,94.59
2019-05-19T01:37:26.123Z,94.59
2019-05-19T01:38:26.083Z,94.70
2019-05-19T01:39:26.094Z,94.90
2019-05-19T01:40:26.051Z,94.59
2019-05-19T01:41:26.089Z,94.59
2019-05-19T01:42:26.033Z,94.90
2019-05-19T01:43:26.023Z,94.96
2019-05-19T01:44:26.014Z,94.45
2019-05-19T01:45:26.016Z,94.45
2019-05-19T01:46:25.991Z,94.45
2019-05-19T01:47:26.020Z,94.55
2019-05-19T01:48:28.022Z,94.75
2019-05-19T01:49:25.959Z,94.59
2019-05-19T01:50:25.948Z,94.75
2019-05-19T01:51:25.938Z,94.70
2019-05-19T01:52:25.923Z,94.90
2019-05-19T01:53:25.924Z,95.00
2019-05-19T01:54:25.900Z,95.00
2019-05-19T01:55:25.888Z,94.70
2019-05-19T01:56:25.881Z,94.65
2019-05-19T01:57:25.875Z,94.65
2019-05-19T01:58:25.855Z,94.65
2019-05-19T01:59:25.862Z,94.85
2019-05-19T02:00:25.839Z,94.75
2019-05-19T02:01:25.822Z,94.65
2019-05-19T02:02:25.815Z,94.55
2019-05-19T02:03:25.800Z,94.75
2019-05-19T02:04:25.865Z,94.85
2019-05-19T02:05:25.799Z,94.85
2019-05-19T02:06:25.766Z,94.45
2019-05-19T02:07:25.761Z,94.85
2019-05-19T02:08:25.763Z,94.85
2019-05-19T02:09:25.769Z,94.96
2019-05-19T02:10:25.735Z,94.75
2019-05-19T02:11:25.739Z,94.85
2019-05-19T02:12:25.700Z,94.65
2019-05-19T02:13:25.689Z,94.75
2019-05-19T02:14:25.678Z,94.85
2019-05-19T02:15:25.674Z,94.90
2019-05-19T02:16:25.657Z,94.90
2019-05-19T02:17:25.645Z,95.00
2019-05-19T02:18:25.637Z,94.70
2019-05-19T02:19:25.624Z,94.70
2019-05-19T02:20:33.277Z,94.90
2019-05-19T02:21:26.603Z,94.65
2019-05-19T02:22:25.593Z,95.06
2019-05-19T02:23:25.579Z,94.45
2019-05-19T02:24:25.568Z,94.75
2019-05-19T02:25:25.562Z,94.55
2019-05-19T02:26:25.554Z,94.75
2019-05-19T02:27:25.532Z,94.70
2019-05-19T02:28:25.521Z,94.85
2019-05-19T02:29:25.532Z,94.90
2019-05-19T02:30:25.496Z,94.59
2019-05-19T02:31:25.493Z,94.85
2019-05-19T02:32:25.481Z,94.80
2019-05-19T02:33:25.471Z,94.80
2019-05-19T02:34:25.501Z,94.90
2019-05-19T02:35:25.439Z,94.55
2019-05-19T02:36:25.477Z,94.49
2019-05-19T02:37:25.422Z,94.90
2019-05-19T02:38:25.416Z,94.80
2019-05-19T02:39:25.404Z,95.00
2019-05-19T02:40:25.384Z,95.17
2019-05-19T02:41:25.375Z,94.65
2019-05-19T02:42:25.374Z,94.65
2019-05-19T02:43:25.365Z,94.49
2019-05-19T02:44:25.385Z,94.80
2019-05-19T02:45:25.361Z,94.55
2019-05-19T02:46:25.326Z,94.55
2019-05-19T02:47:25.320Z,94.75
2019-05-19T02:48:25.312Z,94.59
2019-05-19T02:49:25.289Z,94.55
2019-05-19T02:50:25.275Z,94.80
2019-05-19T02:51:25.279Z,94.90
2019-05-19T02:52:25.255Z,94.59
2019-05-19T02:53:25.245Z,94.80
2019-05-19T02:54:25.234Z,94.70
2019-05-19T02:55:25.227Z,94.80
2019-05-19T02:56:25.218Z,94.80
2019-05-19T02:57:25.207Z,95.00
2019-05-19T02:58:25.190Z,94.80
2019-05-19T02:59:25.176Z,94.80
2019-05-19T03:00:25.168Z,94.74
2019-05-19T03:01:25.160Z,94.74
2019-05-19T03:02:25.157Z,94.84
2019-05-19T03:03:25.128Z,94.84
2019-05-19T03:04:25.147Z,94.64
2019-05-19T03:05:25.114Z,94.64
2019-05-19T03:06:25.109Z,94.74
2019-05-19T03:07:25.109Z,94.23
2019-05-19T03:08:25.083Z,94.95
2019-05-19T03:09:25.078Z,94.74
2019-05-19T03:10:25.088Z,94.74
2019-05-19T03:11:25.041Z,94.64
2019-05-19T03:12:25.045Z,94.74
2019-05-19T03:13:25.026Z,94.64
2019-05-19T03:14:25.010Z,94.95
2019-05-19T03:15:25.012Z,94.84
2019-05-19T03:16:25.019Z,94.90
2019-05-19T03:17:24.978Z,94.59
2019-05-19T03:18:24.974Z,94.74
2019-05-19T03:19:24.971Z,94.64
2019-05-19T03:20:24.987Z,94.64
2019-05-19T03:21:24.943Z,94.64
2019-05-19T03:22:24.923Z,94.84
2019-05-19T03:23:24.915Z,94.54
2019-05-19T03:24:24.912Z,94.95
2019-05-19T03:25:24.896Z,94.84
2019-05-19T03:26:24.876Z,94.74
2019-05-19T03:27:24.871Z,94.89
2019-05-19T03:28:24.861Z,95.05
2019-05-19T03:29:24.842Z,95.05
2019-05-19T03:30:24.873Z,94.74
2019-05-19T03:31:24.852Z,94.84
2019-05-19T03:32:24.814Z,94.54
2019-05-19T03:33:24.841Z,95.05
2019-05-19T03:34:24.794Z,94.95
2019-05-19T03:35:24.777Z,95.25
2019-05-19T03:36:24.781Z,95.05
2019-05-19T03:37:24.766Z,94.95
2019-05-19T03:38:24.762Z,95.51
2019-05-19T03:39:24.738Z,95.00
2019-05-19T03:40:24.728Z,95.62
2019-05-19T03:41:24.716Z,94.90
2019-05-19T03:42:24.714Z,95.41
2019-05-19T03:43:24.725Z,95.62
2019-05-19T03:44:24.676Z,95.41
2019-05-19T03:45:24.677Z,95.41
2019-05-19T03:46:24.681Z,95.41
2019-05-19T03:47:24.653Z,94.80
2019-05-19T03:48:24.633Z,95.21
2019-05-19T03:49:24.623Z,95.62
2019-05-19T03:50:24.623Z,95.41
2019-05-19T03:51:30.795Z,95.21
2019-05-19T03:52:25.601Z,95.00
2019-05-19T03:53:24.583Z,95.31
2019-05-19T03:54:24.587Z,94.90
2019-05-19T03:55:24.577Z,94.85
2019-05-19T03:56:24.569Z,94.80
2019-05-19T03:57:24.549Z,94.59
2019-05-19T03:58:24.528Z,94.55
2019-05-19T03:59:24.516Z,94.75
2019-05-19T04:00:24.504Z,94.75
2019-05-19T04:01:24.499Z,94.75
2019-05-19T04:02:24.491Z,94.55
2019-05-19T04:03:24.466Z,94.85
2019-05-19T04:04:24.538Z,94.60
2019-05-19T04:05:24.466Z,94.51
2019-05-19T04:06:24.444Z,94.60
2019-05-19T04:07:24.420Z,94.51
2019-05-19T04:08:24.431Z,94.92
2019-05-19T04:09:24.430Z,94.92
2019-05-19T04:10:24.399Z,94.81
2019-05-19T04:11:24.386Z,94.87
2019-05-19T04:12:24.372Z,94.77
2019-05-19T04:13:24.360Z,94.56
2019-05-19T04:14:24.346Z,94.56
2019-05-19T04:15:24.341Z,94.46
2019-05-19T04:16:24.326Z,94.62
2019-05-19T04:17:24.309Z,94.62
2019-05-19T04:18:24.322Z,94.62
2019-05-19T04:19:24.297Z,94.52
2019-05-19T04:20:24.275Z,94.78
2019-05-19T04:21:24.273Z,94.48
2019-05-19T04:22:24.258Z,94.48
2019-05-19T04:23:24.254Z,94.48
2019-05-19T04:24:24.238Z,94.89
2019-05-19T04:25:24.234Z,94.53
2019-05-19T04:26:24.215Z,94.12
2019-05-19T04:27:24.230Z,93.98
2019-05-19T04:28:24.224Z,94.18
2019-05-19T04:29:24.180Z,93.06
2019-05-19T04:30:24.164Z,92.65
2019-05-19T04:31:24.159Z,92.20
2019-05-19T04:32:24.173Z,92.61
2019-05-19T04:33:24.134Z,92.41
2019-05-19T04:34:24.146Z,91.89
2019-05-19T04:35:24.117Z,92.26
2019-05-19T04:36:24.101Z,91.14
2019-05-19T04:37:24.130Z,91.24
2019-05-19T04:38:24.079Z,90.63
2019-05-19T04:39:24.098Z,90.42
2019-05-19T04:40:24.090Z,90.38
2019-05-19T04:41:24.053Z,90.08
2019-05-19T04:42:24.040Z,89.87
2019-05-19T04:43:24.069Z,89.32
2019-05-19T04:44:24.013Z,89.01
2019-05-19T04:45:24.016Z,89.63
2019-05-19T04:46:23.997Z,89.22
2019-05-19T04:47:23.989Z,88.61
2019-05-19T04:48:24.001Z,87.55
2019-05-19T04:49:24.041Z,87.04
2019-05-19T04:50:23.951Z,86.22
2019-05-19T04:51:23.945Z,85.98
2019-05-19T04:52:23.932Z,86.08
2019-05-19T04:53:23.919Z,85.78
2019-05-19T04:54:23.941Z,85.27
2019-05-19T04:55:23.914Z,85.13
2019-05-19T04:56:23.888Z,84.92
2019-05-19T04:57:23.878Z,84.62
2019-05-19T04:58:23.861Z,84.62
2019-05-19T04:59:23.862Z,84.52
2019-05-19T05:00:23.844Z,84.11
2019-05-19T05:01:23.829Z,83.60
2019-05-19T05:02:23.818Z,83.56
2019-05-19T05:03:23.802Z,83.46
2019-05-19T05:04:29.129Z,82.61
2019-05-19T05:05:24.797Z,82.20
2019-05-19T05:06:23.775Z,82.10
2019-05-19T05:07:23.764Z,82.00
2019-05-19T05:08:29.779Z,81.76
2019-05-19T05:09:24.746Z,81.66
2019-05-19T05:10:23.727Z,81.21
2019-05-19T05:11:23.752Z,80.60
2019-05-19T05:12:23.703Z,79.79
2019-05-19T05:13:23.698Z,79.79
2019-05-19T05:14:23.683Z,78.57
2019-05-19T05:15:23.677Z,78.27
2019-05-19T05:16:23.663Z,76.95
2019-05-19T05:17:23.662Z,77.56
2019-05-19T05:18:23.643Z,78.06
2019-05-19T05:19:23.622Z,77.97
2019-05-19T05:20:23.618Z,77.97
2019-05-19T05:21:23.627Z,78.53
2019-05-19T05:22:23.596Z,78.57
2019-05-19T05:23:23.586Z,78.44
2019-05-19T05:24:23.566Z,78.64
2019-05-19T05:25:23.555Z,78.53
2019-05-19T05:26:23.562Z,78.64
2019-05-19T05:27:23.533Z,78.53
2019-05-19T05:28:23.539Z,78.64
2019-05-19T05:29:23.514Z,77.93
2019-05-19T05:30:23.504Z,77.22
2019-05-19T05:31:23.487Z,76.91
2019-05-19T05:32:23.497Z,76.67
2019-05-19T05:33:23.475Z,77.38
2019-05-19T05:34:23.488Z,77.89
2019-05-19T05:35:23.463Z,77.18
2019-05-19T05:36:23.437Z,77.79
2019-05-19T05:37:23.425Z,78.30
2019-05-19T05:38:23.416Z,77.38
2019-05-19T05:39:23.438Z,76.94
2019-05-19T05:40:23.391Z,76.33
2019-05-19T05:41:23.375Z,76.03
2019-05-19T05:42:23.371Z,75.89
2019-05-19T05:43:23.353Z,75.69
2019-05-19T05:44:23.370Z,75.85
2019-05-19T05:45:23.365Z,75.45
2019-05-19T05:46:23.327Z,74.64
2019-05-19T05:47:23.314Z,75.01
2019-05-19T05:48:23.305Z,74.54
2019-05-19T05:49:23.291Z,74.74
2019-05-19T05:50:23.283Z,73.80
2019-05-19T05:51:23.275Z,73.69
2019-05-19T05:52:37.460Z,73.49
2019-05-19T05:53:24.240Z,72.48
2019-05-19T05:54:23.238Z,72.68
2019-05-19T05:55:23.234Z,72.17
2019-05-19T05:56:23.216Z,72.99
2019-05-19T05:57:23.224Z,73.29
2019-05-19T05:58:23.196Z,72.48
2019-05-19T05:59:23.176Z,72.38
2019-05-19T06:00:23.202Z,72.28
2019-05-19T06:01:23.164Z,72.65
2019-05-19T06:02:23.144Z,73.05
2019-05-19T06:03:23.133Z,72.34
2019-05-19T06:04:23.126Z,72.95
2019-05-19T06:05:23.112Z,72.21
2019-05-19T06:06:23.129Z,72.34
2019-05-19T06:07:23.115Z,71.70
2019-05-19T06:08:23.079Z,71.60
2019-05-19T06:09:23.072Z,71.80
2019-05-19T06:10:23.060Z,71.50
2019-05-19T06:11:23.050Z,70.86
2019-05-19T06:12:23.053Z,71.37
2019-05-19T06:13:23.028Z,70.05
2019-05-19T06:14:23.018Z,69.75
2019-05-19T06:15:23.052Z,69.95
2019-05-19T06:16:22.990Z,70.05
2019-05-19T06:17:23.005Z,69.92
2019-05-19T06:18:22.970Z,70.02
2019-05-19T06:19:23.011Z,70.22
2019-05-19T06:20:22.964Z,69.51
2019-05-19T06:21:22.942Z,69.08
2019-05-19T06:22:22.929Z,68.77
2019-05-19T06:23:22.921Z,68.77
2019-05-19T06:24:22.903Z,67.02
2019-05-19T06:25:22.910Z,67.53
2019-05-19T06:26:22.882Z,66.52
2019-05-19T06:27:22.873Z,66.62
2019-05-19T06:28:22.868Z,66.93
2019-05-19T06:29:22.853Z,67.90
2019-05-19T06:30:22.841Z,68.54
2019-05-19T06:31:22.833Z,68.81
2019-05-19T06:32:22.816Z,68.81
2019-05-19T06:33:22.851Z,67.80
2019-05-19T06:34:22.798Z,67.40
2019-05-19T06:35:22.784Z,66.69
2019-05-19T06:36:22.791Z,66.69
2019-05-19T06:37:22.769Z,66.49
2019-05-19T06:38:22.761Z,67.10
2019-05-19T06:39:22.749Z,67.87
2019-05-19T06:40:22.728Z,67.16
2019-05-19T06:41:22.715Z,65.95
2019-05-19T06:42:22.705Z,66.46
2019-05-19T06:43:22.718Z,65.62
2019-05-19T06:44:22.695Z,66.86
2019-05-19T06:45:22.903Z,65.92
2019-05-19T06:46:22.667Z,66.02
2019-05-19T06:47:22.660Z,65.92
2019-05-19T06:48:22.644Z,66.22
2019-05-19T06:49:22.645Z,65.19
2019-05-19T06:50:22.617Z,65.59
2019-05-19T06:51:22.612Z,64.58
2019-05-19T06:52:22.597Z,65.39
2019-05-19T06:53:22.592Z,64.58
2019-05-19T06:54:22.603Z,64.25
2019-05-19T06:55:22.623Z,64.48
2019-05-19T06:56:22.573Z,64.55
2019-05-19T06:57:22.547Z,65.16
2019-05-19T06:58:22.532Z,65.06
2019-05-19T06:59:22.529Z,64.25
2019-05-19T07:00:22.531Z,63.24
2019-05-19T07:01:22.509Z,62.54
2019-05-19T07:02:22.494Z,63.34
2019-05-19T07:03:22.479Z,63.75
2019-05-19T07:04:22.485Z,63.45
2019-05-19T07:05:22.600Z,63.71
2019-05-19T07:06:22.468Z,62.61
2019-05-19T07:07:22.441Z,62.27
2019-05-19T07:08:22.427Z,62.78
2019-05-19T07:09:22.429Z,61.47
2019-05-19T07:10:22.406Z,60.64
2019-05-19T07:11:22.435Z,60.64
2019-05-19T07:12:22.401Z,60.44
2019-05-19T07:13:22.366Z,60.84
2019-05-19T07:14:22.358Z,60.84
2019-05-19T07:15:22.368Z,61.74
2019-05-19T07:16:22.336Z,60.51
2019-05-19T07:17:22.335Z,60.61
2019-05-19T07:18:22.322Z,60.00
2019-05-19T07:19:22.319Z,60.00
2019-05-19T07:20:22.293Z,59.10
2019-05-19T07:21:22.284Z,58.87
2019-05-19T07:22:22.313Z,59.58
2019-05-19T07:23:28.205Z,58.57
2019-05-19T07:24:23.247Z,59.47
2019-05-19T07:25:22.388Z,59.47
2019-05-19T07:26:22.224Z,58.57
2019-05-19T07:27:22.214Z,57.84
2019-05-19T07:28:22.227Z,58.44
2019-05-19T07:29:22.213Z,57.94
2019-05-19T07:30:22.191Z,57.04
2019-05-19T07:31:22.170Z,58.04
2019-05-19T07:32:22.167Z,57.51
2019-05-19T07:33:22.150Z,58.22
2019-05-19T07:34:22.184Z,58.22
2019-05-19T07:35:22.236Z,57.81
2019-05-19T07:36:22.114Z,58.01
2019-05-19T07:37:22.107Z,57.81
2019-05-19T07:38:22.095Z,58.79
2019-05-19T07:39:22.080Z,57.28
2019-05-19T07:40:22.084Z,58.59
2019-05-19T07:41:22.069Z,58.29
2019-05-19T07:42:22.052Z,56.88
2019-05-19T07:43:22.150Z,55.95
2019-05-19T07:44:22.031Z,56.65
2019-05-19T07:45:22.019Z,55.93
2019-05-19T07:46:22.016Z,56.45
2019-05-19T07:47:21.997Z,55.55
2019-05-19T07:48:21.983Z,56.02
2019-05-19T07:49:21.981Z,56.43
2019-05-19T07:50:21.961Z,57.73
2019-05-19T07:51:21.955Z,55.52
2019-05-19T07:52:21.991Z,56.13
2019-05-19T07:53:21.927Z,55.40
2019-05-19T07:54:21.917Z,53.59
2019-05-19T07:55:21.925Z,53.27
2019-05-19T07:56:21.899Z,51.46
2019-05-19T07:57:21.908Z,51.84
2019-05-19T07:58:21.881Z,52.14
2019-05-19T07:59:21.868Z,52.74
2019-05-19T08:00:21.872Z,51.44
2019-05-19T08:01:21.844Z,51.62
2019-05-19T08:02:21.837Z,50.02
2019-05-19T08:03:21.824Z,50.42
2019-05-19T08:04:21.813Z,49.91
2019-05-19T08:05:21.805Z,50.24
2019-05-19T08:06:21.797Z,51.54
2019-05-19T08:07:21.774Z,51.44
2019-05-19T08:08:21.778Z,51.92
2019-05-19T08:09:21.762Z,52.02
2019-05-19T08:10:21.748Z,51.20
2019-05-19T08:11:21.760Z,52.80
2019-05-19T08:12:21.724Z,51.50
2019-05-19T08:13:21.707Z,51.59
2019-05-19T08:14:21.702Z,52.77
2019-05-19T08:15:21.693Z,51.57
2019-05-19T08:16:21.686Z,51.97
2019-05-19T08:17:21.678Z,51.77
2019-05-19T08:18:21.701Z,51.64
2019-05-19T08:19:21.773Z,50.22
2019-05-19T08:20:21.639Z,48.43
2019-05-19T08:21:21.625Z,47.13
2019-05-19T08:22:21.623Z,49.85
2019-05-19T08:23:21.598Z,49.74
2019-05-19T08:24:21.591Z,51.02
2019-05-19T08:25:21.576Z,50.92
2019-05-19T08:26:21.571Z,50.82
2019-05-19T08:27:21.598Z,49.62
2019-05-19T08:28:21.550Z,50.70
2019-05-19T08:29:21.539Z,49.50
2019-05-19T08:30:21.527Z,49.80
2019-05-19T08:31:21.518Z,50.70
2019-05-19T08:32:21.509Z,50.77
2019-05-19T08:33:21.510Z,49.85
2019-05-19T08:34:21.489Z,46.46
2019-05-19T08:35:21.469Z,46.73
2019-05-19T08:36:21.463Z,46.91
2019-05-19T08:37:21.447Z,47.02
2019-05-19T08:38:21.446Z,47.39
2019-05-19T08:39:21.439Z,46.49
2019-05-19T08:40:21.427Z,45.70
2019-05-19T08:41:21.409Z,46.30
2019-05-19T08:42:21.398Z,46.09
2019-05-19T08:43:21.413Z,45.50
2019-05-19T08:44:21.387Z,46.59
2019-05-19T08:45:21.370Z,44.72
2019-05-19T08:46:21.410Z,45.60
2019-05-19T08:47:21.346Z,45.28
2019-05-19T08:48:21.336Z,43.98
2019-05-19T08:49:21.354Z,45.06
2019-05-19T08:50:21.309Z,44.93
2019-05-19T08:51:21.307Z,45.53
2019-05-19T08:52:21.288Z,43.94
2019-05-19T08:53:21.278Z,44.46
2019-05-19T08:54:21.283Z,46.45
2019-05-19T08:55:21.276Z,44.74
2019-05-19T08:56:21.244Z,45.53
2019-05-19T08:57:21.264Z,43.35
2019-05-19T08:58:21.229Z,44.34
2019-05-19T08:59:21.226Z,44.56
2019-05-19T09:00:21.208Z,45.95
2019-05-19T09:01:21.195Z,43.96
2019-05-19T09:02:21.254Z,46.47
2019-05-19T09:03:21.185Z,46.08
2019-05-19T09:04:21.162Z,46.77
2019-05-19T09:05:21.152Z,46.75
2019-05-19T09:06:21.140Z,45.43
2019-05-19T09:07:21.135Z,46.31
2019-05-19T09:08:21.133Z,43.10
2019-05-19T09:09:21.120Z,43.40
2019-05-19T09:10:21.139Z,43.90
2019-05-19T09:11:21.087Z,43.40
2019-05-19T09:12:21.078Z,44.52
2019-05-19T09:13:21.072Z,43.90
2019-05-19T09:14:21.063Z,42.93
2019-05-19T09:15:21.054Z,43.84
2019-05-19T09:16:21.057Z,44.12
2019-05-19T09:17:21.053Z,43.90
2019-05-19T09:18:21.024Z,44.59
2019-05-19T09:19:21.012Z,44.18
2019-05-19T09:20:21.027Z,43.76
2019-05-19T09:21:20.986Z,44.25
2019-05-19T09:22:20.984Z,43.64
2019-05-19T09:23:20.967Z,44.13
2019-05-19T09:24:30.199Z,44.23
2019-05-19T09:25:21.982Z,44.21
2019-05-19T09:26:20.946Z,42.92
2019-05-19T09:27:20.938Z,42.92
2019-05-19T09:28:20.914Z,43.42
2019-05-19T09:29:20.904Z,42.63
2019-05-19T09:30:20.915Z,41.63
2019-05-19T09:31:20.899Z,43.02
2019-05-19T09:32:20.877Z,42.13
2019-05-19T09:33:20.870Z,42.72
2019-05-19T09:34:20.926Z,40.96
2019-05-19T09:35:20.845Z,42.15
2019-05-19T09:36:20.855Z,41.47
2019-05-19T09:37:20.829Z,41.87
2019-05-19T09:38:20.814Z,40.88
2019-05-19T09:39:20.801Z,43.54
2019-05-19T09:40:20.809Z,42.66
2019-05-19T09:41:20.786Z,40.76
2019-05-19T09:42:20.790Z,43.84
2019-05-19T09:43:20.806Z,42.15
2019-05-19T09:44:20.756Z,42.35
2019-05-19T09:45:20.745Z,42.27
2019-05-19T09:46:20.737Z,42.17
2019-05-19T09:47:20.730Z,42.86
2019-05-19T09:48:20.713Z,42.65
2019-05-19T09:49:20.717Z,42.47
2019-05-19T09:50:20.694Z,41.66
2019-05-19T09:51:20.681Z,42.07
2019-05-19T09:52:20.674Z,42.17
2019-05-19T09:53:20.660Z,42.77
2019-05-19T09:54:20.659Z,43.44
2019-05-19T09:55:20.640Z,43.71
2019-05-19T09:56:20.630Z,43.12
2019-05-19T09:57:20.625Z,42.33
2019-05-19T09:58:20.612Z,40.74
2019-05-19T09:59:20.613Z,41.63
2019-05-19T10:00:20.591Z,42.23
2019-05-19T10:01:20.578Z,43.22
2019-05-19T10:02:20.570Z,42.13
2019-05-19T10:03:20.581Z,40.23
2019-05-19T10:04:20.569Z,40.52
2019-05-19T10:05:20.538Z,40.94
2019-05-19T10:06:20.534Z,40.84
2019-05-19T10:07:20.522Z,41.44
2019-05-19T10:08:20.525Z,43.10
2019-05-19T10:09:20.502Z,42.21
2019-05-19T10:10:20.507Z,42.19
2019-05-19T10:11:20.505Z,40.41
2019-05-19T10:12:20.474Z,39.61
2019-05-19T10:13:20.467Z,41.79
2019-05-19T10:14:20.454Z,41.60
2019-05-19T10:15:20.447Z,43.38
2019-05-19T10:16:20.426Z,40.58
2019-05-19T10:17:20.416Z,40.60
2019-05-19T10:18:20.409Z,40.50
2019-05-19T10:19:20.402Z,42.78
2019-05-19T10:20:20.417Z,40.52
2019-05-19T10:21:20.394Z,42.21
2019-05-19T10:22:20.372Z,39.73
2019-05-19T10:23:20.369Z,40.72
2019-05-19T10:24:20.361Z,42.03
2019-05-19T10:25:22.684Z,41.14
2019-05-19T10:26:20.355Z,41.33
2019-05-19T10:27:21.739Z,40.82
2019-05-19T10:28:20.307Z,43.20
2019-05-19T10:29:20.303Z,41.71
2019-05-19T10:30:20.293Z,40.70
2019-05-19T10:31:20.317Z,40.98
2019-05-19T10:32:20.279Z,39.12
2019-05-19T10:33:20.259Z,40.50
2019-05-19T10:34:20.252Z,39.51
2019-05-19T10:35:20.242Z,40.41
2019-05-19T10:36:20.237Z,39.59
2019-05-19T10:37:20.241Z,38.19
2019-05-19T10:38:20.214Z,39.40
2019-05-19T10:39:20.201Z,38.70
2019-05-19T10:40:20.192Z,40.26
2019-05-19T10:41:20.182Z,39.20
2019-05-19T10:42:20.169Z,38.60
2019-05-19T10:43:20.191Z,38.60
2019-05-19T10:44:20.150Z,39.59
2019-05-19T10:45:20.156Z,38.51
2019-05-19T10:46:20.133Z,38.68
2019-05-19T10:47:20.122Z,39.58
2019-05-19T10:48:20.114Z,37.63
2019-05-19T10:49:20.114Z,39.42
2019-05-19T10:50:20.090Z,39.55
2019-05-19T10:51:20.076Z,40.94
2019-05-19T10:52:20.093Z,39.85
2019-05-19T10:53:20.073Z,39.43
2019-05-19T10:54:20.060Z,39.63
2019-05-19T10:55:20.040Z,40.39
2019-05-19T10:56:20.035Z,39.28
2019-05-19T10:57:20.023Z,38.39
2019-05-19T10:58:20.020Z,38.39
2019-05-19T10:59:20.037Z,40.37
2019-05-19T11:00:19.992Z,39.64
2019-05-19T11:01:19.986Z,39.81
2019-05-19T11:02:19.986Z,39.70
2019-05-19T11:03:19.958Z,39.30
2019-05-19T11:04:19.971Z,38.53
2019-05-19T11:05:19.941Z,38.57
2019-05-19T11:06:19.943Z,39.26
2019-05-19T11:07:19.915Z,39.99
2019-05-19T11:08:19.912Z,40.80
2019-05-19T11:09:19.900Z,39.20
2019-05-19T11:10:19.908Z,39.58
2019-05-19T11:11:19.880Z,38.37
2019-05-19T11:12:19.875Z,37.87
2019-05-19T11:13:19.868Z,36.79
2019-05-19T11:14:19.854Z,38.55
2019-05-19T11:15:19.847Z,39.32
2019-05-19T11:16:19.827Z,37.52
2019-05-19T11:17:19.821Z,36.91
2019-05-19T11:18:19.809Z,37.80
2019-05-19T11:19:19.798Z,37.49
2019-05-19T11:20:19.807Z,36.70
2019-05-19T11:21:19.778Z,37.74
2019-05-19T11:22:19.764Z,38.55
2019-05-19T11:23:19.758Z,38.29
2019-05-19T11:24:19.799Z,39.81
2019-05-19T11:25:33.002Z,40.01
2019-05-19T11:26:20.722Z,39.79
2019-05-19T11:27:19.728Z,39.28
2019-05-19T11:28:19.707Z,37.98
2019-05-19T11:29:19.698Z,38.65
2019-05-19T11:30:19.712Z,39.28
2019-05-19T11:31:19.675Z,38.80
2019-05-19T11:32:19.667Z,39.42
2019-05-19T11:33:19.653Z,39.73
2019-05-19T11:34:19.655Z,41.93
2019-05-19T11:35:19.634Z,41.63
2019-05-19T11:36:19.630Z,40.42
2019-05-19T11:37:19.614Z,40.11
2019-05-19T11:38:19.605Z,38.59
2019-05-19T11:39:19.591Z,39.04
2019-05-19T11:40:19.579Z,36.65
2019-05-19T11:41:19.579Z,36.25
2019-05-19T11:42:19.562Z,37.45
2019-05-19T11:43:19.556Z,36.46
2019-05-19T11:44:19.538Z,36.73
2019-05-19T11:45:19.536Z,37.43
2019-05-19T11:46:19.544Z,36.47
2019-05-19T11:47:19.507Z,36.72
2019-05-19T11:48:19.503Z,38.23
2019-05-19T11:49:19.491Z,40.33
2019-05-19T11:50:19.484Z,39.77
2019-05-19T11:51:19.471Z,40.60
2019-05-19T11:52:19.465Z,41.00
2019-05-19T11:53:19.455Z,40.58
2019-05-19T11:54:19.435Z,40.88
2019-05-19T11:55:19.433Z,41.58
2019-05-19T11:56:19.463Z,41.24
2019-05-19T11:57:19.408Z,38.74
2019-05-19T11:58:19.420Z,39.40
2019-05-19T11:59:19.391Z,39.36
2019-05-19T12:00:19.376Z,37.85
2019-05-19T12:01:19.371Z,37.82
2019-05-19T12:02:19.375Z,37.72
2019-05-19T12:03:19.345Z,36.11
2019-05-19T12:04:19.339Z,37.68
2019-05-19T12:05:19.334Z,36.29
2019-05-19T12:06:19.321Z,35.88
2019-05-19T12:07:19.310Z,35.28
2019-05-19T12:08:19.296Z,35.88
2019-05-19T12:09:19.292Z,35.60
2019-05-19T12:10:19.277Z,36.40
2019-05-19T12:11:19.267Z,36.95
2019-05-19T12:12:19.263Z,38.12
2019-05-19T12:13:19.292Z,36.63
2019-05-19T12:14:19.245Z,38.06
2019-05-19T12:15:19.223Z,39.87
2019-05-19T12:16:19.213Z,40.19
2019-05-19T12:17:19.207Z,39.56
2019-05-19T12:18:19.201Z,38.55
2019-05-19T12:19:19.197Z,39.20
2019-05-19T12:20:19.170Z,36.52
2019-05-19T12:21:19.169Z,36.82
2019-05-19T12:22:19.154Z,36.40
2019-05-19T12:23:19.145Z,37.37
2019-05-19T12:24:19.148Z,37.26
2019-05-19T12:25:19.128Z,36.45
2019-05-19T12:26:23.111Z,34.87
2019-05-19T12:27:19.102Z,35.46
2019-05-19T12:28:19.095Z,34.97
2019-05-19T12:29:19.110Z,36.23
2019-05-19T12:30:19.081Z,37.61
2019-05-19T12:31:19.102Z,35.94
2019-05-19T12:32:19.068Z,36.53
2019-05-19T12:33:19.047Z,38.24
2019-05-19T12:34:19.038Z,39.76
2019-05-19T12:35:19.031Z,39.97
2019-05-19T12:36:19.015Z,41.04
2019-05-19T12:37:19.006Z,39.23
2019-05-19T12:38:18.990Z,38.49
2019-05-19T12:39:18.985Z,36.13
2019-05-19T12:40:22.449Z,37.47
2019-05-19T12:41:18.962Z,37.72
2019-05-19T12:42:18.955Z,39.54
2019-05-19T12:43:18.941Z,40.74
2019-05-19T12:44:18.931Z,40.58
2019-05-19T12:45:18.938Z,41.46
2019-05-19T12:46:18.917Z,40.45
2019-05-19T12:47:18.909Z,40.01
2019-05-19T12:48:18.894Z,39.70
2019-05-19T12:49:18.889Z,39.46
2019-05-19T12:50:18.875Z,37.96
2019-05-19T12:51:18.877Z,37.65
2019-05-19T12:52:18.849Z,38.43